March Air Force Base, California
Current Conditions -  °F | °C
As of 10:52 PM on Friday 24 Oct 2014 (Local Time) from KTRM Reporting Station
Clear Clear  
Wind Chill: 69°   Ceiling: Unl
Heat Index: 69°   Visibility: 10mi
Dew Point: 49°   Wind: 5mph
Humidity: 49%   Direction: 330°NNW
Pressure: 29.91"   Gusts: NA
Location:  33.7529°N, 116.0556°W
Report Text: KTRM 250552Z AUTO 33004KT 10SM CLR 21/09 A2991 RMK AO2 SLP138 T02060094 10333 20200 51013 TSNO
Loading
Personal Weather Stations






























Interactive Weather Map
Tropical Storm Tracking
New forecast layout! Learn more

10-Day Weather Forecast

Advertisements
Track Severe Weather on mobile